Accueil
METAR-TAF:

METAR-TAF

Aéroports :

Natashquan, Québec, Canada

latitude: 50-11N, longitude: 061-49W, altitude: 7 m

Observation

Le bulletin a été fait il y a 27 minutes, à 21:00 UTC
Vent 13 kt de sud/sud-ouest
Température 6°C
Humidité 52%
Pression 1013 hPa
Visibilité: 14.5 km
Ciel clair

METAR: CYNA 242100Z AUTO 21013KT 9SM CLR 06/M03 A2990 RMK SLP128

Heure: 17:27 (21:27 UTC)

Prévision

Le bulletin a été fait il y a 1 heure et 46 minutes, à 19:41 UTC
Prévision valable du 24 à 20 UTC au 25 à 08 UTC
Vent 12 kt de sud-ouest
Visibilité: 10 km
Nuages fragmentés à une hauteur de 7000 ft
A partir de 25 à 0600 UTC
Vent 10 kt de sud
Visibilité: 9.7 km
Nuages épars à une hauteur de 600 ft
Nuages fragmentés à une hauteur de 3000 ft
Ciel couvert à une hauteur de 6000 ft
pluie faible, brume

TAF: CYNA 241941Z 2420/2508 23012KT P6SM BKN070 FM250600 17010KT 6SM -RA BR SCT006 BKN030 OVC060 RMK FCST BASED ON AUTO OBS. NXT FCST BY 250200Z

Observations et prévisions météorologiques de plus de 4000 aéroports (messages METAR et TAF).

Les stations disponibles sont représentées par des disques jaunes et rouges sur la carte.

Passer la souris dessus pour voir le nom de la station.

Cliquer dessus pour voir les observations et prévisions météorologiques.

Pour changer de carte: cliquez sur les boutons verts avec une croix noire pour zoomer, sur le bouton vert avec un tiret pour effectuer un zoom arrière, ou sur les flèches vertes pour les cartes adjacentes.


METAR-TAF: